createdAt,value
2022-12-10T00:00:59.266Z,1021.9
2022-12-10T00:02:42.970Z,1021.6
2022-12-10T00:04:26.683Z,1022.8
2022-12-10T00:06:10.375Z,1021
2022-12-10T00:07:54.083Z,1006.9
2022-12-10T00:09:37.776Z,991.4
2022-12-10T00:11:21.477Z,985.6
2022-12-10T00:13:05.182Z,982.9
2022-12-10T00:14:48.881Z,977.5
2022-12-10T00:16:32.593Z,983.1
2022-12-10T00:18:16.295Z,988.7
2022-12-10T00:19:59.992Z,987
2022-12-10T00:21:43.697Z,987.4
2022-12-10T00:23:27.399Z,986.8
2022-12-10T00:25:11.102Z,981.9
2022-12-10T00:26:54.805Z,978.8
2022-12-10T00:28:38.502Z,981.4
2022-12-10T00:30:22.220Z,984.3
2022-12-10T00:32:05.921Z,980.7
2022-12-10T00:33:49.615Z,979.9
2022-12-10T00:35:33.318Z,979.9
2022-12-10T00:37:17.023Z,979.2
2022-12-10T00:39:00.724Z,972.4
2022-12-10T00:40:44.446Z,969.2
2022-12-10T00:42:28.122Z,954
2022-12-10T00:44:11.825Z,939.6
2022-12-10T00:45:55.534Z,937.2
2022-12-10T00:47:39.236Z,941.9
2022-12-10T00:49:22.942Z,944.6
2022-12-10T00:51:06.638Z,946
2022-12-10T00:52:50.364Z,945.5
2022-12-10T00:54:34.053Z,945.7
2022-12-10T00:56:17.745Z,943.8
2022-12-10T00:58:01.451Z,939
2022-12-10T00:59:45.164Z,936.7
2022-12-10T01:01:28.860Z,940.2
2022-12-10T01:03:12.563Z,939.1
2022-12-10T01:04:56.259Z,934.8
2022-12-10T01:06:39.966Z,932.4
2022-12-10T01:08:23.670Z,931.3
2022-12-10T01:10:07.363Z,928.5
2022-12-10T01:11:51.070Z,928.8
2022-12-10T01:13:34.776Z,927.2
2022-12-10T01:15:18.475Z,927.3
2022-12-10T01:17:02.178Z,928.6
2022-12-10T01:18:45.880Z,921.5
2022-12-10T01:20:29.582Z,902
2022-12-10T01:22:13.284Z,878.2
2022-12-10T01:23:56.981Z,900.5
2022-12-10T01:25:40.692Z,899.4
2022-12-10T01:27:24.517Z,892.3
2022-12-10T01:29:08.097Z,884
2022-12-10T01:30:51.800Z,883.1
2022-12-10T01:32:35.503Z,870.6
2022-12-10T01:34:19.206Z,863.8
2022-12-10T01:36:02.911Z,861.8
2022-12-10T01:37:46.601Z,866.9
2022-12-10T01:39:30.312Z,872.5
2022-12-10T01:41:14.038Z,871.9
2022-12-10T01:42:57.715Z,869.3
2022-12-10T01:44:41.413Z,869.3
2022-12-10T01:46:25.124Z,868.6
2022-12-10T01:48:08.826Z,867.4
2022-12-10T01:49:52.544Z,866.2
2022-12-10T01:51:36.235Z,865.2
2022-12-10T01:53:19.934Z,866.6
2022-12-10T01:55:03.632Z,868.6
2022-12-10T01:56:47.331Z,869.2
2022-12-10T01:58:31.039Z,868.8
2022-12-10T02:00:14.747Z,866.4
2022-12-10T02:01:58.515Z,866.1
2022-12-10T02:03:42.151Z,863.3
2022-12-10T02:05:25.847Z,861.7
2022-12-10T02:07:09.551Z,865.1
2022-12-10T02:08:53.265Z,862.8
2022-12-10T02:10:36.955Z,859.9
2022-12-10T02:12:20.660Z,860.4
2022-12-10T02:14:04.369Z,862.1
2022-12-10T02:15:48.059Z,861.8
2022-12-10T02:17:31.767Z,862.5
2022-12-10T02:19:15.477Z,863.6
2022-12-10T02:20:59.174Z,863.7
2022-12-10T02:22:42.881Z,863.8
2022-12-10T02:24:26.577Z,861.1
2022-12-10T02:26:10.309Z,857.6
2022-12-10T02:27:53.987Z,858.3
2022-12-10T02:29:37.677Z,859.1
2022-12-10T02:31:21.509Z,855.6
2022-12-10T02:33:05.095Z,851.8
2022-12-10T02:34:48.794Z,848.3
2022-12-10T02:36:32.495Z,845.1
2022-12-10T02:38:16.204Z,844.5
2022-12-10T02:39:59.904Z,843
2022-12-10T02:41:43.612Z,844.5
2022-12-10T02:43:27.306Z,843.7
2022-12-10T02:45:11.010Z,846.3
2022-12-10T02:46:54.716Z,847.3
2022-12-10T02:48:38.414Z,848.7
2022-12-10T02:50:22.117Z,846.3
2022-12-10T02:52:05.827Z,841.3
2022-12-10T02:53:49.526Z,839.8
2022-12-10T02:55:33.234Z,838.9
2022-12-10T02:57:16.939Z,839.1
2022-12-10T02:59:00.635Z,841.8
2022-12-10T03:00:44.334Z,840.3
2022-12-10T03:02:28.032Z,836.4
2022-12-10T03:04:11.739Z,834.4
2022-12-10T03:05:55.522Z,829.1
2022-12-10T03:07:39.146Z,831
2022-12-10T03:09:22.868Z,830.7
2022-12-10T03:11:06.551Z,835.1
2022-12-10T03:12:50.250Z,831.6
2022-12-10T03:14:33.958Z,826.7
2022-12-10T03:16:17.651Z,826.2
2022-12-10T03:18:01.353Z,827.7
2022-12-10T03:19:45.067Z,829.6
2022-12-10T03:21:28.755Z,825.2
2022-12-10T03:23:12.463Z,822.6
2022-12-10T03:24:56.181Z,823.1
2022-12-10T03:26:39.873Z,819.5
2022-12-10T03:28:23.573Z,820.8
2022-12-10T03:30:07.272Z,819.8
2022-12-10T03:31:50.978Z,820.9
2022-12-10T03:33:34.689Z,819.6
2022-12-10T03:35:18.386Z,816.2
2022-12-10T03:37:02.089Z,815.6
2022-12-10T03:38:45.789Z,816.9
2022-12-10T03:40:29.493Z,819.6
2022-12-10T03:42:13.212Z,823.1
2022-12-10T03:43:56.892Z,820.8
2022-12-10T03:45:40.601Z,819.6
2022-12-10T03:47:24.307Z,819.2
2022-12-10T03:49:07.998Z,818.1
2022-12-10T03:50:51.700Z,817.1
2022-12-10T03:52:35.412Z,816.2
2022-12-10T03:54:19.107Z,815.4
2022-12-10T03:56:02.812Z,812.5
2022-12-10T03:57:46.512Z,811
2022-12-10T03:59:30.220Z,812.3
2022-12-10T04:01:13.926Z,811.1
2022-12-10T04:02:57.786Z,810.9
2022-12-10T04:04:41.331Z,807.7
2022-12-10T04:06:25.109Z,806.8
2022-12-10T04:08:08.726Z,809.4
2022-12-10T04:09:52.428Z,810.7
2022-12-10T04:11:36.134Z,810.5
2022-12-10T04:13:19.844Z,808.7
2022-12-10T04:15:03.544Z,808
2022-12-10T04:16:47.241Z,811.7
2022-12-10T04:18:30.950Z,811
2022-12-10T04:20:14.646Z,815
2022-12-10T04:21:58.346Z,812.4
2022-12-10T04:23:42.060Z,808.8
2022-12-10T04:25:25.759Z,807.9
2022-12-10T04:27:09.457Z,805.5
2022-12-10T04:28:53.181Z,803.4
2022-12-10T04:30:36.872Z,806.3
2022-12-10T04:32:20.569Z,808
2022-12-10T04:34:04.267Z,800.3
2022-12-10T04:35:47.954Z,801.4
2022-12-10T04:37:31.665Z,803.4
2022-12-10T04:39:15.378Z,801.6
2022-12-10T04:40:59.073Z,799.4
2022-12-10T04:42:42.788Z,799.5
2022-12-10T04:44:26.473Z,798.7
2022-12-10T04:46:10.183Z,799.8
2022-12-10T04:47:53.890Z,800
2022-12-10T04:49:37.583Z,801.4
2022-12-10T04:51:21.276Z,803.6
2022-12-10T04:53:04.981Z,802.4
2022-12-10T04:54:48.695Z,800.7
2022-12-10T04:56:32.402Z,800.8
2022-12-10T04:58:16.093Z,801.2
2022-12-10T04:59:59.795Z,804.1
2022-12-10T05:01:43.510Z,804.6
2022-12-10T05:03:27.209Z,809.5
2022-12-10T05:05:10.910Z,810.4
2022-12-10T05:06:54.614Z,809
2022-12-10T05:08:38.322Z,806.8
2022-12-10T05:10:22.021Z,803.7
2022-12-10T05:12:05.717Z,802.4
2022-12-10T05:13:49.421Z,802.8
2022-12-10T05:15:33.129Z,800.8
2022-12-10T05:17:16.824Z,801.3
2022-12-10T05:19:00.533Z,800.5
2022-12-10T05:20:44.233Z,801.4
2022-12-10T05:22:27.944Z,800.6
2022-12-10T05:24:11.644Z,800.6
2022-12-10T05:25:55.341Z,800.9
2022-12-10T05:27:39.046Z,797.6
2022-12-10T05:29:22.750Z,798.7
2022-12-10T05:31:06.450Z,798.9
2022-12-10T05:32:50.157Z,798.6
2022-12-10T05:34:33.860Z,800.1
2022-12-10T05:36:17.556Z,801.6
2022-12-10T05:38:01.275Z,802.5
2022-12-10T05:39:44.966Z,800.2
2022-12-10T05:41:28.667Z,798.2
2022-12-10T05:43:12.372Z,799.5
2022-12-10T05:44:56.065Z,797.7
2022-12-10T05:46:39.780Z,798.8
2022-12-10T05:48:23.485Z,797.3
2022-12-10T05:50:07.175Z,795
2022-12-10T05:51:50.875Z,793.7
2022-12-10T05:53:34.577Z,790.8
2022-12-10T05:55:18.289Z,796.6
2022-12-10T05:57:02.005Z,797.8
2022-12-10T05:58:45.685Z,794.4
2022-12-10T06:00:29.389Z,798.3
2022-12-10T06:02:13.092Z,798.8
2022-12-10T06:03:56.795Z,798.5
2022-12-10T06:05:40.493Z,797.4
2022-12-10T06:07:24.189Z,795.9
2022-12-10T06:09:07.901Z,794.1
2022-12-10T06:10:51.614Z,797.7
2022-12-10T06:12:35.304Z,798.3
2022-12-10T06:14:19.015Z,797.4
2022-12-10T06:16:02.718Z,795.5
2022-12-10T06:17:46.405Z,797
2022-12-10T06:19:30.121Z,789.9
2022-12-10T06:21:13.818Z,786.5
2022-12-10T06:22:57.524Z,793.9
2022-12-10T06:24:41.228Z,795.4
2022-12-10T06:26:24.934Z,791.9
2022-12-10T06:28:08.637Z,786.2
2022-12-10T06:29:52.345Z,786.3
2022-12-10T06:31:36.037Z,786.4
2022-12-10T06:33:19.755Z,785.9
2022-12-10T06:35:03.452Z,787.2
2022-12-10T06:36:47.153Z,785.6
2022-12-10T06:38:30.856Z,785.8
2022-12-10T06:40:14.563Z,789.3
2022-12-10T06:41:58.266Z,787.7
2022-12-10T06:43:41.976Z,781.1
2022-12-10T06:45:25.677Z,776.3
2022-12-10T06:47:09.391Z,778.3
2022-12-10T06:48:53.083Z,775.5
2022-12-10T06:50:36.790Z,772.2
2022-12-10T06:52:20.491Z,775
2022-12-10T06:54:04.187Z,780.6
2022-12-10T06:55:47.924Z,785
2022-12-10T06:57:31.599Z,787.5
2022-12-10T06:59:15.338Z,788
2022-12-10T07:00:58.997Z,786
2022-12-10T07:02:42.703Z,783.5
2022-12-10T07:04:26.406Z,783.9
2022-12-10T07:06:10.116Z,786
2022-12-10T07:07:53.807Z,787.1
2022-12-10T07:09:37.603Z,788
2022-12-10T07:11:21.219Z,787.2
2022-12-10T07:13:04.917Z,790.4
2022-12-10T07:14:48.650Z,792.4
2022-12-10T07:16:32.365Z,793.4
2022-12-10T07:18:16.028Z,795.4
2022-12-10T07:19:59.773Z,797.1
2022-12-10T07:21:43.435Z,902.5
2022-12-10T07:23:27.201Z,908.2
2022-12-10T07:25:10.842Z,844.3
2022-12-10T07:26:54.540Z,836
2022-12-10T07:28:38.250Z,833.3
2022-12-10T07:30:21.950Z,832.8
2022-12-10T07:32:05.646Z,835.9
2022-12-10T07:33:49.359Z,838
2022-12-10T07:35:33.058Z,841.6
2022-12-10T07:37:16.761Z,843.9
2022-12-10T07:39:00.466Z,843
2022-12-10T07:40:44.163Z,840.1
2022-12-10T07:42:27.865Z,840.7
2022-12-10T07:44:11.574Z,841
2022-12-10T07:45:55.323Z,841.7
2022-12-10T07:47:38.983Z,840.8
2022-12-10T07:49:22.739Z,837
2022-12-10T07:51:06.381Z,838.1
2022-12-10T07:52:50.136Z,839.7
2022-12-10T07:54:33.866Z,840
2022-12-10T07:56:17.484Z,841.1
2022-12-10T07:58:01.201Z,841
2022-12-10T07:59:44.885Z,839.7
2022-12-10T08:01:28.590Z,840
2022-12-10T08:03:12.325Z,841.9
2022-12-10T08:04:55.999Z,844.9
2022-12-10T08:06:39.730Z,843.2
2022-12-10T08:08:23.403Z,844.4
2022-12-10T08:10:07.098Z,845
2022-12-10T08:11:50.811Z,845.4
2022-12-10T08:13:34.509Z,844.7
2022-12-10T08:15:18.208Z,843.1
2022-12-10T08:17:01.918Z,839.2
2022-12-10T08:18:45.666Z,839
2022-12-10T08:20:29.419Z,840.7
2022-12-10T08:22:13.017Z,838.5
2022-12-10T08:23:56.729Z,836.1
2022-12-10T08:25:40.429Z,837.4
2022-12-10T08:27:24.129Z,839.3
2022-12-10T08:29:07.834Z,834.5
2022-12-10T08:30:51.534Z,833.8
2022-12-10T08:32:35.246Z,837.8
2022-12-10T08:34:18.946Z,838.4
2022-12-10T08:36:02.641Z,838.1
2022-12-10T08:37:46.411Z,841.7
2022-12-10T08:39:30.082Z,840.9
2022-12-10T08:41:13.744Z,835.1
2022-12-10T08:42:57.464Z,830.1
2022-12-10T08:46:24.855Z,827.7
2022-12-10T08:48:08.559Z,827.6
2022-12-10T08:49:52.260Z,829.9
2022-12-10T08:51:35.988Z,828.3
2022-12-10T08:53:19.670Z,828.8
2022-12-10T08:55:03.372Z,834
2022-12-10T08:56:47.078Z,835.9
2022-12-10T08:58:30.777Z,835.2
2022-12-10T09:00:14.484Z,831.5
2022-12-10T09:01:58.176Z,829.8
2022-12-10T09:03:41.908Z,829.4
2022-12-10T09:05:25.591Z,826.9
2022-12-10T09:07:09.297Z,824
2022-12-10T09:08:52.996Z,823.2
2022-12-10T09:10:36.700Z,824.5
2022-12-10T09:12:20.404Z,828.1
2022-12-10T09:14:04.109Z,830.1
2022-12-10T09:15:47.818Z,828.7
2022-12-10T09:17:31.517Z,826.5
2022-12-10T09:19:15.219Z,832.7
2022-12-10T09:20:58.923Z,830.8
2022-12-10T09:22:42.622Z,830.1
2022-12-10T09:24:26.331Z,830.9
2022-12-10T09:26:10.029Z,833.7
2022-12-10T09:27:53.727Z,834.9
2022-12-10T09:29:37.434Z,831.2
2022-12-10T09:31:21.144Z,829.4
2022-12-10T09:33:04.832Z,826.3
2022-12-10T09:34:48.551Z,824.6
2022-12-10T09:36:32.234Z,823.7
2022-12-10T09:38:16.031Z,824.3
2022-12-10T09:39:59.646Z,821.3
2022-12-10T09:41:43.349Z,823
2022-12-10T09:43:27.070Z,826.3
2022-12-10T09:45:10.762Z,827.3
2022-12-10T09:46:54.455Z,830.3
2022-12-10T09:48:38.158Z,830.6
2022-12-10T09:50:21.864Z,831.3
2022-12-10T09:53:49.276Z,829.7
2022-12-10T09:55:32.960Z,829.7
2022-12-10T09:57:16.676Z,831
2022-12-10T09:59:00.379Z,830.8
2022-12-10T10:00:44.072Z,833.5
2022-12-10T10:02:27.776Z,829.5
2022-12-10T10:04:11.487Z,828
2022-12-10T10:05:55.184Z,829.8
2022-12-10T10:07:38.892Z,826.7
2022-12-10T10:09:22.587Z,828.8
2022-12-10T10:11:06.297Z,829.6
2022-12-10T10:12:50.006Z,825.9
2022-12-10T10:14:33.694Z,826.5
2022-12-10T10:16:17.399Z,829.9
2022-12-10T10:18:01.106Z,828.9
2022-12-10T10:19:44.803Z,835.2
2022-12-10T10:21:28.515Z,852.6
2022-12-10T10:23:12.231Z,861
2022-12-10T10:24:55.912Z,851.8
2022-12-10T10:26:39.676Z,849.5
2022-12-10T10:28:23.314Z,850.1
2022-12-10T10:30:07.016Z,844.7
2022-12-10T10:31:50.729Z,841.8
2022-12-10T10:33:34.421Z,841.9
2022-12-10T10:35:18.128Z,840.7
2022-12-10T10:37:01.836Z,838
2022-12-10T10:38:45.534Z,841.3
2022-12-10T10:40:29.244Z,835.9
2022-12-10T10:42:12.939Z,836.4
2022-12-10T10:43:56.644Z,836.9
2022-12-10T10:45:40.347Z,836.9
2022-12-10T10:47:24.069Z,836.4
2022-12-10T10:49:07.749Z,838.3
2022-12-10T10:50:51.462Z,835.7
2022-12-10T10:52:35.162Z,834.4
2022-12-10T10:54:18.895Z,833.4
2022-12-10T10:56:02.571Z,837.3
2022-12-10T10:57:46.278Z,837.1
2022-12-10T10:59:29.979Z,836.1
2022-12-10T11:01:13.669Z,838
2022-12-10T11:02:57.370Z,837.7
2022-12-10T11:04:41.078Z,839
2022-12-10T11:06:24.854Z,838.1
2022-12-10T11:08:08.481Z,841.7
2022-12-10T11:09:52.187Z,842
2022-12-10T11:11:35.884Z,842.4
2022-12-10T11:13:19.585Z,842.9
2022-12-10T11:15:03.288Z,845.3
2022-12-10T11:16:46.997Z,848.6
2022-12-10T11:18:30.701Z,845.1
2022-12-10T11:20:14.397Z,843.5
2022-12-10T11:21:58.101Z,845.1
2022-12-10T11:23:41.812Z,844.3
2022-12-10T11:25:25.531Z,842.8
2022-12-10T11:27:09.214Z,843
2022-12-10T11:28:52.917Z,847.7
2022-12-10T11:30:36.620Z,849.4
2022-12-10T11:32:20.342Z,845.9
2022-12-10T11:34:04.026Z,843.5
2022-12-10T11:35:47.724Z,842.8
2022-12-10T11:37:31.434Z,842.2
2022-12-10T11:39:15.127Z,842.3
2022-12-10T11:40:58.840Z,847.8
2022-12-10T11:42:42.551Z,844.9
2022-12-10T11:44:26.239Z,840.1
2022-12-10T11:46:09.933Z,840.1
2022-12-10T11:47:53.644Z,836.4
2022-12-10T11:49:37.352Z,834.5
2022-12-10T11:51:21.070Z,836.2
2022-12-10T11:53:04.765Z,835.2
2022-12-10T11:54:48.457Z,911.6
2022-12-10T11:56:32.163Z,952.8
2022-12-10T11:58:15.857Z,978
2022-12-10T11:59:59.565Z,985.8
2022-12-10T12:01:43.272Z,988.4
2022-12-10T12:03:26.966Z,946.7
2022-12-10T12:05:10.675Z,915.6
2022-12-10T12:06:54.376Z,913.5
2022-12-10T12:08:38.083Z,916.1
2022-12-10T12:10:21.865Z,918.6
2022-12-10T12:12:05.498Z,918.5
2022-12-10T12:13:49.185Z,915.5
2022-12-10T12:15:32.880Z,917.5
2022-12-10T12:17:16.594Z,918.4
2022-12-10T12:19:00.297Z,916.6
2022-12-10T12:20:43.998Z,917.5
2022-12-10T12:22:27.701Z,918.4
2022-12-10T12:24:11.409Z,921.7
2022-12-10T12:25:55.106Z,920.7
2022-12-10T12:27:38.809Z,918.7
2022-12-10T12:29:22.564Z,917.1
2022-12-10T12:31:06.211Z,929.6
2022-12-10T12:32:49.914Z,962.9
2022-12-10T12:34:33.665Z,973.1
2022-12-10T12:36:17.323Z,978.9
2022-12-10T12:38:01.025Z,981
2022-12-10T12:39:44.745Z,970.7
2022-12-10T12:41:28.431Z,970.4
2022-12-10T12:43:12.139Z,967.4
2022-12-10T12:44:55.837Z,968.2
2022-12-10T12:46:39.543Z,976.2
2022-12-10T12:48:23.250Z,974.6
2022-12-10T12:50:06.948Z,965.8
2022-12-10T12:51:50.654Z,963.3
2022-12-10T12:53:34.363Z,964
2022-12-10T12:55:18.057Z,963.3
2022-12-10T12:57:01.763Z,958.9
2022-12-10T12:58:45.464Z,962.6
2022-12-10T13:00:29.167Z,966.1
2022-12-10T13:02:12.878Z,969.3
2022-12-10T13:03:56.568Z,969.7
2022-12-10T13:05:40.278Z,970.4
2022-12-10T13:07:23.977Z,968.3
2022-12-10T13:09:07.673Z,970.4
2022-12-10T13:10:51.382Z,967.7
2022-12-10T13:12:35.089Z,966.3
2022-12-10T13:14:18.798Z,968.5
2022-12-10T13:16:02.498Z,969.6
2022-12-10T13:17:46.186Z,970.9
2022-12-10T13:19:29.888Z,976.5
2022-12-10T13:21:13.590Z,976.8
2022-12-10T13:22:57.302Z,968.5
2022-12-10T13:24:41.077Z,967
2022-12-10T13:26:24.748Z,964.5
2022-12-10T13:28:08.465Z,961.1
2022-12-10T13:29:52.110Z,956.7
2022-12-10T13:31:35.807Z,957.8
2022-12-10T13:33:19.517Z,954.9
2022-12-10T13:35:03.243Z,959.3
2022-12-10T13:36:46.927Z,958.8
2022-12-10T13:38:30.655Z,956.3
2022-12-10T13:40:14.339Z,954.9
2022-12-10T13:41:58.033Z,952.2
2022-12-10T13:43:41.746Z,948.4
2022-12-10T13:45:25.450Z,948.9
2022-12-10T13:47:09.148Z,946.7
2022-12-10T13:48:52.850Z,947.1
2022-12-10T13:50:36.573Z,950.5
2022-12-10T13:52:20.338Z,971.7
2022-12-10T13:54:03.953Z,986.4
2022-12-10T13:55:47.648Z,987.1
2022-12-10T13:57:31.352Z,987.8
2022-12-10T13:59:15.086Z,990.8
2022-12-10T14:00:58.758Z,993.1
2022-12-10T14:02:42.466Z,992.3
2022-12-10T14:04:26.159Z,989
2022-12-10T14:06:09.866Z,983.3
2022-12-10T14:07:53.575Z,978.1
2022-12-10T14:09:37.307Z,973.7
2022-12-10T14:11:20.984Z,973.1
2022-12-10T14:13:04.695Z,975.3
2022-12-10T14:14:48.384Z,974.5
2022-12-10T14:16:32.088Z,976.6
2022-12-10T14:18:15.844Z,977.1
2022-12-10T14:19:59.481Z,973.5
2022-12-10T14:21:43.200Z,971.9
2022-12-10T14:23:26.898Z,969.7
2022-12-10T14:25:10.602Z,968.1
2022-12-10T14:26:54.303Z,968.7
2022-12-10T14:28:38.017Z,968.1
2022-12-10T14:30:21.705Z,967.5
2022-12-10T14:32:05.407Z,967.1
2022-12-10T14:33:49.101Z,965.9
2022-12-10T14:35:32.807Z,966.3
2022-12-10T14:37:16.508Z,965
2022-12-10T14:39:00.230Z,963.4
2022-12-10T14:40:43.925Z,960.6
2022-12-10T14:42:27.617Z,963.8
2022-12-10T14:44:11.327Z,967.7
2022-12-10T14:45:55.089Z,965.4
2022-12-10T14:47:38.727Z,965.7
2022-12-10T14:49:22.431Z,968.4
2022-12-10T14:51:06.138Z,969
2022-12-10T14:52:49.838Z,971.5
2022-12-10T14:54:33.543Z,997.6
2022-12-10T14:56:17.254Z,1031.8
2022-12-10T14:58:00.950Z,1032.4
2022-12-10T14:59:44.651Z,1027.3
2022-12-10T15:01:28.347Z,1020.2
2022-12-10T15:03:12.055Z,1014.7
2022-12-10T15:04:55.754Z,1016.1
2022-12-10T15:06:39.454Z,1015.3
2022-12-10T15:08:23.170Z,1015
2022-12-10T15:10:06.862Z,1011.8
2022-12-10T15:11:50.645Z,1010.5
2022-12-10T15:13:34.270Z,1008.3
2022-12-10T15:15:17.996Z,1003.1
2022-12-10T15:17:01.671Z,1000.9
2022-12-10T15:18:45.374Z,997
2022-12-10T15:20:29.090Z,994
2022-12-10T15:22:12.792Z,993.2
2022-12-10T15:23:56.542Z,990
2022-12-10T15:25:40.187Z,986.4
2022-12-10T15:27:23.897Z,987.5
2022-12-10T15:29:07.623Z,1004.4
2022-12-10T15:30:51.305Z,1015.3
2022-12-10T15:32:34.994Z,1018.1
2022-12-10T15:34:18.692Z,1021.2
2022-12-10T15:36:02.402Z,1015.9
2022-12-10T15:37:46.112Z,1015.9
2022-12-10T15:39:29.870Z,1014.2
2022-12-10T15:41:13.517Z,1010.3
2022-12-10T15:42:57.218Z,1007.4
2022-12-10T15:44:40.927Z,1003.3
2022-12-10T15:46:24.625Z,1000.1
2022-12-10T15:48:08.331Z,993.4
2022-12-10T15:49:52.048Z,990.3
2022-12-10T15:51:35.734Z,986.5
2022-12-10T15:53:19.445Z,980.4
2022-12-10T15:55:03.141Z,975.5
2022-12-10T15:56:46.841Z,972.6
2022-12-10T15:58:30.539Z,968.2
2022-12-10T16:00:14.287Z,965
2022-12-10T16:01:57.943Z,959.8
2022-12-10T16:03:41.653Z,959.4
2022-12-10T16:05:25.348Z,955.2
2022-12-10T16:07:09.062Z,951.9
2022-12-10T16:08:52.779Z,944.9
2022-12-10T16:10:36.455Z,938.2
2022-12-10T16:12:20.163Z,937.2
2022-12-10T16:14:03.864Z,936
2022-12-10T16:15:47.570Z,930.1
2022-12-10T16:17:31.312Z,927.8
2022-12-10T16:19:14.984Z,927.1
2022-12-10T16:20:58.742Z,927.3
2022-12-10T16:22:42.401Z,925.4
2022-12-10T16:24:26.094Z,923.5
2022-12-10T16:26:09.788Z,914.7
2022-12-10T16:27:53.489Z,912.6
2022-12-10T16:29:37.293Z,910.6
2022-12-10T16:31:20.900Z,908.2
2022-12-10T16:33:04.599Z,905.8
2022-12-10T16:34:48.300Z,905.2
2022-12-10T16:36:32.015Z,898.6
2022-12-10T16:38:15.706Z,899.7
2022-12-10T16:39:59.412Z,903.8
2022-12-10T16:41:43.174Z,905.1
2022-12-10T16:43:26.943Z,905.6
2022-12-10T16:45:10.526Z,901.3
2022-12-10T16:46:54.251Z,896.3
2022-12-10T16:48:38.020Z,893.2
2022-12-10T16:50:21.639Z,892.4
2022-12-10T16:52:05.324Z,893.7
2022-12-10T16:53:49.032Z,891.1
2022-12-10T16:55:32.734Z,887.7
2022-12-10T16:57:16.446Z,884.6
2022-12-10T16:59:00.162Z,879.8
2022-12-10T17:00:43.847Z,878.8
2022-12-10T17:02:27.550Z,877.6
2022-12-10T17:04:11.292Z,878.7
2022-12-10T17:05:54.997Z,879.5
2022-12-10T17:07:38.659Z,873.8
2022-12-10T17:09:22.352Z,871.9
2022-12-10T17:11:06.060Z,873.6
2022-12-10T17:12:49.758Z,871.5
2022-12-10T17:14:33.474Z,863.1
2022-12-10T17:16:17.170Z,858
2022-12-10T17:18:00.867Z,854.1
2022-12-10T17:19:44.587Z,854.9
2022-12-10T17:21:28.276Z,855.1
2022-12-10T17:23:11.990Z,854.9
2022-12-10T17:24:55.682Z,856.8
2022-12-10T17:26:39.394Z,855.7
2022-12-10T17:28:23.087Z,852
2022-12-10T17:30:06.789Z,846.8
2022-12-10T17:31:50.505Z,843.1
2022-12-10T17:33:34.197Z,839.7
2022-12-10T17:35:17.915Z,836.6
2022-12-10T17:37:01.600Z,835.3
2022-12-10T17:38:45.341Z,835.1
2022-12-10T17:40:29.015Z,833
2022-12-10T17:42:12.703Z,829.7
2022-12-10T17:43:56.411Z,831.7
2022-12-10T17:45:40.119Z,829.2
2022-12-10T17:47:23.819Z,830.4
2022-12-10T17:49:07.518Z,825.8
2022-12-10T17:50:51.225Z,822.8
2022-12-10T17:52:34.975Z,817.6
2022-12-10T17:54:18.620Z,814.4
2022-12-10T17:56:02.324Z,811.7
2022-12-10T17:57:46.028Z,811.4
2022-12-10T17:59:29.734Z,810.5
2022-12-10T18:01:13.435Z,810.1
2022-12-10T18:02:57.139Z,813.2
2022-12-10T18:04:40.849Z,820
2022-12-10T18:06:24.549Z,826.1
2022-12-10T18:08:08.263Z,829.3
2022-12-10T18:09:51.950Z,830.5
2022-12-10T18:11:35.655Z,829.9
2022-12-10T18:13:19.358Z,827.5
2022-12-10T18:15:03.053Z,826.4
2022-12-10T18:16:46.758Z,828.3
2022-12-10T18:18:30.521Z,830.9
2022-12-10T18:20:14.163Z,831.2
2022-12-10T18:21:57.867Z,828.4
2022-12-10T18:23:41.564Z,823.5
2022-12-10T18:25:25.273Z,824.4
2022-12-10T18:27:08.980Z,822.4
2022-12-10T18:28:52.705Z,817.9
2022-12-10T18:30:36.376Z,818
2022-12-10T18:32:20.084Z,818.4
2022-12-10T18:34:03.787Z,817.7
2022-12-10T18:35:47.514Z,816.4
2022-12-10T18:37:31.195Z,814.6
2022-12-10T18:39:14.894Z,814.6
2022-12-10T18:40:58.604Z,809.1
2022-12-10T18:42:42.317Z,809.5
2022-12-10T18:44:26.016Z,810.3
2022-12-10T18:46:09.711Z,808.9
2022-12-10T18:47:53.409Z,804.2
2022-12-10T18:49:37.120Z,799.9
2022-12-10T18:51:20.827Z,798.7
2022-12-10T18:53:04.523Z,798.3
2022-12-10T18:54:48.275Z,802.5
2022-12-10T18:56:31.924Z,802.5
2022-12-10T18:58:15.628Z,803.2
2022-12-10T18:59:59.421Z,801.3
2022-12-10T19:01:43.029Z,794.5
2022-12-10T19:03:26.741Z,795
2022-12-10T19:05:10.521Z,793.6
2022-12-10T19:06:54.138Z,793.1
2022-12-10T19:08:37.844Z,791.9
2022-12-10T19:10:21.541Z,788.8
2022-12-10T19:12:05.250Z,785.6
2022-12-10T19:13:48.952Z,781.5
2022-12-10T19:15:32.645Z,780.5
2022-12-10T19:17:16.356Z,781.2
2022-12-10T19:19:00.072Z,781.6
2022-12-10T19:20:43.759Z,778.6
2022-12-10T19:22:27.514Z,779.6
2022-12-10T19:24:11.306Z,781.9
2022-12-10T19:25:54.875Z,783.4
2022-12-10T19:27:38.581Z,784.1
2022-12-10T19:29:22.274Z,785.6
2022-12-10T19:31:06.005Z,783.2
2022-12-10T19:32:49.739Z,780.7
2022-12-10T19:34:33.384Z,779
2022-12-10T19:36:17.083Z,778.7
2022-12-10T19:38:00.836Z,777.5
2022-12-10T19:39:44.492Z,772.7
2022-12-10T19:41:28.199Z,772
2022-12-10T19:43:11.895Z,775.9
2022-12-10T19:44:55.590Z,776.5
2022-12-10T19:46:39.312Z,771.8
2022-12-10T19:48:23.053Z,769.5
2022-12-10T19:50:06.725Z,766.5
2022-12-10T19:51:50.473Z,765.6
2022-12-10T19:53:34.112Z,763
2022-12-10T19:55:17.810Z,761.7
2022-12-10T19:57:01.522Z,760.9
2022-12-10T19:58:45.225Z,760.7
2022-12-10T20:00:28.931Z,757.6
2022-12-10T20:02:12.618Z,760.4
2022-12-10T20:03:56.329Z,758.4
2022-12-10T20:05:40.032Z,758.3
2022-12-10T20:07:23.733Z,755.6
2022-12-10T20:09:07.436Z,756.3
2022-12-10T20:10:51.180Z,754.4
2022-12-10T20:12:34.842Z,755.2
2022-12-10T20:14:18.569Z,755.6
2022-12-10T20:16:02.246Z,754.6
2022-12-10T20:17:45.946Z,754.4
2022-12-10T20:19:29.730Z,753.1
2022-12-10T20:21:13.354Z,752
2022-12-10T20:22:57.063Z,751.5
2022-12-10T20:24:40.760Z,753.9
2022-12-10T20:26:24.457Z,754.6
2022-12-10T20:28:08.173Z,751.2
2022-12-10T20:29:51.923Z,749.1
2022-12-10T20:31:35.568Z,750.6
2022-12-10T20:33:19.292Z,747.5
2022-12-10T20:35:02.983Z,743.9
2022-12-10T20:36:46.692Z,746.1
2022-12-10T20:38:30.378Z,749.2
2022-12-10T20:40:14.075Z,755.3
2022-12-10T20:41:57.780Z,751.6
2022-12-10T20:43:41.490Z,750.1
2022-12-10T20:45:25.189Z,746.4
2022-12-10T20:47:08.891Z,745.9
2022-12-10T20:48:52.606Z,748.8
2022-12-10T20:50:36.288Z,762.4
2022-12-10T20:52:19.999Z,777.3
2022-12-10T20:54:03.701Z,776.6
2022-12-10T20:55:47.405Z,771.8
2022-12-10T20:57:31.115Z,768.8
2022-12-10T20:59:14.815Z,768.4
2022-12-10T21:00:58.597Z,764.8
2022-12-10T21:02:42.214Z,764.5
2022-12-10T21:04:25.913Z,767.6
2022-12-10T21:06:09.624Z,767.8
2022-12-10T21:07:53.324Z,767.1
2022-12-10T21:09:37.037Z,768.3
2022-12-10T21:11:20.726Z,768.1
2022-12-10T21:13:04.430Z,766.7
2022-12-10T21:14:48.143Z,766.2
2022-12-10T21:16:31.873Z,769.1
2022-12-10T21:18:15.597Z,763
2022-12-10T21:19:59.243Z,760.3
2022-12-10T21:21:42.934Z,757.9
2022-12-10T21:23:26.778Z,758.6
2022-12-10T21:25:10.360Z,759.4
2022-12-10T21:26:54.057Z,762.5
2022-12-10T21:28:37.816Z,763.7
2022-12-10T21:30:21.478Z,763.8
2022-12-10T21:32:05.168Z,765.5
2022-12-10T21:33:48.893Z,762
2022-12-10T21:35:32.670Z,762
2022-12-10T21:37:16.317Z,757.9
2022-12-10T21:38:59.973Z,755.9
2022-12-10T21:40:43.732Z,751.3
2022-12-10T21:42:27.437Z,752.7
2022-12-10T21:44:11.087Z,753.2
2022-12-10T21:45:54.919Z,750.7
2022-12-10T21:47:38.500Z,749.9
2022-12-10T21:49:22.229Z,750.6
2022-12-10T21:51:05.893Z,749.5
2022-12-10T21:52:49.631Z,752.1
2022-12-10T21:54:33.293Z,751.3
2022-12-10T21:56:17.013Z,749.9
2022-12-10T21:58:00.697Z,750.7
2022-12-10T21:59:44.471Z,751
2022-12-10T22:01:28.104Z,752.5
2022-12-10T22:03:11.863Z,753
2022-12-10T22:04:55.580Z,754.2
2022-12-10T22:06:39.220Z,756.5
2022-12-10T22:08:22.904Z,752.6
2022-12-10T22:10:06.619Z,748.6
2022-12-10T22:11:50.324Z,744.9
2022-12-10T22:13:34.021Z,745.4
2022-12-10T22:15:17.797Z,744.8
2022-12-10T22:17:01.431Z,745.4
2022-12-10T22:18:45.131Z,745
2022-12-10T22:20:28.835Z,748.5
2022-12-10T22:22:12.606Z,751.8
2022-12-10T22:23:56.309Z,747.8
2022-12-10T22:25:39.937Z,747.4